Time;durP1;ratioP1;P1;durP2;ratioP2;P2;SDS_P1;SDS_P2;PMS_P1;PMS_P2;Temp;Humidity;BMP_temperature;BMP_pressure;BME280_temperature;BME280_humidity;BME280_pressure;Samples;Min_cycle;Max_cycle;Signal;HPM_P1;HPM_P2
2022/05/21 00:02:03;;;;;;;13.98;5.97;;;10.20;99.90;;;;;;5092832;27;20041;-76
2022/05/21 00:04:29;;;;;;;14.93;5.88;;;10.30;99.90;;;;;;5114449;27;20038;-80
2022/05/21 00:06:57;;;;;;;16.02;6.15;;;10.40;99.90;;;;;;5097788;27;20095;-77
2022/05/21 00:09:24;;;;;;;16.20;5.68;;;10.20;99.90;;;;;;5091506;27;20449;-77
2022/05/21 00:11:49;;;;;;;17.40;6.28;;;10.40;99.90;;;;;;5095519;27;20091;-76
2022/05/21 00:14:15;;;;;;;15.48;6.03;;;10.30;99.90;;;;;;5116071;27;20034;-77
2022/05/21 00:16:41;;;;;;;15.23;5.57;;;10.30;99.90;;;;;;5094788;27;20035;-80
2022/05/21 00:19:06;;;;;;;16.90;6.20;;;10.40;99.90;;;;;;5116923;27;20062;-79
2022/05/21 00:21:32;;;;;;;14.43;6.93;;;10.40;99.90;;;;;;5093697;27;20112;-79
2022/05/21 00:23:57;;;;;;;18.15;6.63;;;10.30;99.90;;;;;;5117188;27;20147;-77
2022/05/21 00:26:25;;;;;;;11.63;6.57;;;10.40;99.90;;;;;;5120095;27;20046;-76
2022/05/21 00:28:51;;;;;;;18.45;8.00;;;10.40;99.90;;;;;;5118197;27;20041;-77
2022/05/21 00:31:18;;;;;;;19.63;8.40;;;10.40;99.90;;;;;;5117765;27;20541;-80
2022/05/21 00:33:46;;;;;;;21.42;8.85;;;10.40;99.90;;;;;;5124684;27;20506;-77
2022/05/21 00:36:13;;;;;;;23.13;9.43;;;10.60;99.90;;;;;;5126604;27;20062;-78
2022/05/21 00:38:40;;;;;;;18.67;10.15;;;10.50;99.90;;;;;;5117846;27;20035;-78
2022/05/21 00:41:08;;;;;;;19.75;9.15;;;10.50;99.90;;;;;;5109299;27;20039;-80
2022/05/21 00:43:48;;;;;;;22.40;9.98;;;10.60;99.90;;;;;;5113384;27;20180;-79
2022/05/21 00:46:27;;;;;;;23.25;10.00;;;10.60;99.90;;;;;;5098895;27;20050;-78
2022/05/21 00:49:16;;;;;;;30.15;11.10;;;10.70;99.90;;;;;;5102755;27;20416;-81
2022/05/21 00:52:03;;;;;;;20.70;11.63;;;10.70;99.90;;;;;;5108318;27;20785;-78
2022/05/21 00:54:48;;;;;;;28.02;10.80;;;10.70;99.90;;;;;;5094077;27;20043;-80
2022/05/21 00:57:28;;;;;;;23.85;10.80;;;10.80;99.90;;;;;;5113561;27;20058;-80
2022/05/21 01:00:10;;;;;;;18.98;9.85;;;10.80;99.90;;;;;;5109920;27;20050;-77
2022/05/21 01:02:39;;;;;;;21.80;10.40;;;10.90;99.90;;;;;;5109993;27;20391;-77
2022/05/21 01:05:10;;;;;;;21.40;10.45;;;10.90;99.90;;;;;;5116767;27;20066;-81
2022/05/21 01:07:38;;;;;;;28.65;12.27;;;10.90;99.90;;;;;;5112776;27;20054;-78
2022/05/21 01:10:04;;;;;;;23.88;12.68;;;10.90;99.90;;;;;;5112975;27;20050;-79
2022/05/21 01:12:34;;;;;;;28.73;13.32;;;10.90;99.90;;;;;;5104560;27;20039;-78
2022/05/21 01:15:04;;;;;;;29.17;14.23;;;10.90;99.90;;;;;;5118365;27;20031;-81
2022/05/21 01:17:29;;;;;;;31.55;15.18;;;10.90;99.90;;;;;;5120963;27;20042;-78
2022/05/21 01:19:58;;;;;;;28.25;14.55;;;10.90;99.90;;;;;;5121440;27;20133;-81
2022/05/21 01:22:26;;;;;;;30.65;14.00;;;10.90;99.90;;;;;;5119363;27;20053;-78
2022/05/21 01:24:51;;;;;;;31.10;14.95;;;11.00;99.90;;;;;;5101854;27;20047;-78
2022/05/21 01:27:19;;;;;;;29.73;15.90;;;11.00;99.90;;;;;;5117155;27;20049;-78
2022/05/21 01:29:48;;;;;;;26.20;14.90;;;10.90;99.90;;;;;;5115405;27;20055;-80
2022/05/21 01:32:18;;;;;;;26.65;14.93;;;11.00;99.90;;;;;;5103880;27;20047;-76
2022/05/21 01:34:44;;;;;;;27.55;15.45;;;11.00;99.90;;;;;;5100870;27;20170;-80
2022/05/21 01:37:11;;;;;;;31.58;17.05;;;11.30;99.90;;;;;;5117674;27;20080;-79
2022/05/21 01:39:36;;;;;;;33.05;16.65;;;11.00;99.90;;;;;;5117950;27;20504;-80
2022/05/21 01:42:02;;;;;;;35.92;17.48;;;11.10;99.90;;;;;;5118351;27;20039;-77
2022/05/21 01:44:40;;;;;;;34.65;17.27;;;11.10;99.90;;;;;;5115515;27;20035;-77
2022/05/21 01:47:07;;;;;;;36.47;17.70;;;11.20;99.90;;;;;;5095567;27;20031;-76
2022/05/21 01:49:33;;;;;;;41.03;18.58;;;11.30;99.90;;;;;;5115756;27;20035;-76
2022/05/21 01:52:00;;;;;;;40.35;19.70;;;11.30;99.90;;;;;;5112446;27;20034;-78
2022/05/21 01:54:27;;;;;;;34.45;19.73;;;11.50;99.90;;;;;;5119895;27;20038;-78
2022/05/21 01:56:53;;;;;;;41.78;19.00;;;11.40;99.90;;;;;;5122052;27;20504;-79
2022/05/21 01:59:18;;;;;;;37.72;21.38;;;11.60;99.90;;;;;;5123638;27;20039;-78
2022/05/21 02:01:44;;;;;;;44.13;20.83;;;11.60;99.90;;;;;;5131290;27;20091;-74
2022/05/21 02:04:09;;;;;;;42.75;21.45;;;11.50;99.90;;;;;;5130909;27;20042;-77
2022/05/21 02:06:35;;;;;;;38.25;21.70;;;11.70;99.90;;;;;;5112842;27;20041;-79
2022/05/21 02:09:01;;;;;;;41.88;21.63;;;11.70;99.90;;;;;;5118979;27;20095;-78
2022/05/21 02:11:27;;;;;;;42.35;22.00;;;11.80;99.90;;;;;;5102036;27;20057;-80
2022/05/21 02:13:52;;;;;;;40.67;22.40;;;11.70;99.90;;;;;;5098439;27;20100;-82
2022/05/21 02:16:18;;;;;;;39.40;22.10;;;11.70;99.90;;;;;;5116334;27;20031;-79
2022/05/21 02:18:44;;;;;;;40.63;21.73;;;11.90;99.90;;;;;;5096449;27;20189;-79
2022/05/21 02:21:10;;;;;;;33.25;20.83;;;12.00;99.90;;;;;;5119105;27;20046;-76
2022/05/21 02:23:35;;;;;;;40.67;22.95;;;11.80;99.90;;;;;;5118452;27;20035;-77
2022/05/21 02:26:02;;;;;;;38.60;22.17;;;11.90;99.90;;;;;;5103699;27;20038;-76
2022/05/21 02:28:28;;;;;;;47.13;22.90;;;12.00;99.90;;;;;;5096973;27;20162;-78
2022/05/21 02:30:54;;;;;;;37.15;22.30;;;12.00;99.90;;;;;;5108489;27;20129;-76
2022/05/21 02:33:21;;;;;;;41.97;21.17;;;12.00;99.90;;;;;;5095359;27;20163;-78
2022/05/21 02:35:47;;;;;;;44.08;21.50;;;12.00;99.90;;;;;;5117836;27;20482;-75
2022/05/21 02:40:57;;;;;;;41.60;19.98;;;12.10;99.90;;;;;;5116188;27;20057;-78
2022/05/21 02:43:23;;;;;;;44.65;20.35;;;12.10;99.90;;;;;;5099572;27;20130;-80
2022/05/21 02:45:49;;;;;;;42.33;18.98;;;12.20;99.90;;;;;;5117313;27;20418;-80
2022/05/21 02:48:15;;;;;;;48.97;19.02;;;12.30;99.90;;;;;;5113090;27;20050;-79
2022/05/21 02:50:41;;;;;;;45.05;18.75;;;12.30;99.90;;;;;;5114188;27;20031;-80
2022/05/21 02:53:13;;;;;;;42.60;18.55;;;12.30;99.90;;;;;;5111150;27;20046;-76
2022/05/21 02:55:38;;;;;;;43.53;18.52;;;12.30;99.90;;;;;;5096118;27;20119;-78
2022/05/21 02:58:04;;;;;;;48.28;18.67;;;12.30;99.90;;;;;;5116805;27;20046;-80
2022/05/21 03:00:31;;;;;;;37.25;16.15;;;12.40;99.90;;;;;;5115572;27;20046;-76
2022/05/21 03:02:58;;;;;;;44.38;15.57;;;12.40;99.90;;;;;;5110239;27;20062;-78
2022/05/21 03:05:26;;;;;;;41.65;15.65;;;12.40;99.90;;;;;;5109992;27;20030;-77
2022/05/21 03:07:52;;;;;;;47.03;14.48;;;12.40;99.90;;;;;;5109625;27;21360;-80
2022/05/21 03:10:22;;;;;;;34.38;11.23;;;12.40;99.90;;;;;;5114777;27;20236;-79
2022/05/21 03:12:56;;;;;;;37.90;10.10;;;12.50;99.90;;;;;;5115720;27;20039;-83
2022/05/21 03:15:42;;;;;;;36.20;9.18;;;12.50;99.90;;;;;;5113393;27;20035;-77
2022/05/21 03:18:11;;;;;;;26.73;8.55;;;12.50;99.90;;;;;;5105093;27;20055;-77
2022/05/21 03:20:37;;;;;;;39.97;8.68;;;12.60;99.90;;;;;;5113693;27;20035;-79
2022/05/21 03:23:04;;;;;;;35.90;8.20;;;12.60;99.90;;;;;;5115968;27;20027;-76
2022/05/21 03:25:30;;;;;;;31.95;8.40;;;12.60;99.90;;;;;;5135858;27;20035;-79
2022/05/21 03:27:56;;;;;;;37.33;8.35;;;12.60;99.90;;;;;;5122184;27;20045;-75
2022/05/21 03:30:24;;;;;;;34.08;7.35;;;12.60;99.90;;;;;;5114873;27;20043;-74
2022/05/21 03:32:51;;;;;;;40.03;7.85;;;12.60;99.90;;;;;;5111219;27;20054;-79
2022/05/21 03:35:17;;;;;;;33.33;7.53;;;12.70;99.90;;;;;;5118514;27;20497;-76
2022/05/21 03:37:43;;;;;;;26.67;7.25;;;12.70;99.90;;;;;;5114618;27;20375;-79
2022/05/21 03:40:13;;;;;;;37.05;7.22;;;12.70;99.90;;;;;;5117301;27;20039;-77
2022/05/21 03:42:38;;;;;;;38.55;7.55;;;12.80;99.90;;;;;;5099581;27;20474;-79
2022/05/21 03:45:05;;;;;;;34.70;6.63;;;12.80;99.90;;;;;;5115544;27;20038;-81
2022/05/21 03:47:31;;;;;;;29.83;6.55;;;12.80;99.90;;;;;;5102740;27;20104;-80
2022/05/21 03:49:57;;;;;;;36.38;6.43;;;12.90;99.90;;;;;;5102613;27;20493;-80
2022/05/21 03:52:23;;;;;;;27.63;6.50;;;12.80;99.90;;;;;;5101409;27;20038;-80
2022/05/21 03:54:49;;;;;;;23.45;5.35;;;12.90;99.90;;;;;;5120119;27;20417;-78
2022/05/21 03:57:15;;;;;;;26.00;5.78;;;13.00;99.90;;;;;;5104854;27;20172;-80
2022/05/21 03:59:42;;;;;;;28.67;5.85;;;13.00;99.90;;;;;;5101641;27;20039;-78
2022/05/21 04:02:08;;;;;;;26.60;5.70;;;12.90;99.90;;;;;;5122599;27;20031;-75
2022/05/21 04:04:33;;;;;;;29.85;5.55;;;13.00;99.90;;;;;;5125082;27;20032;-76
2022/05/21 04:06:59;;;;;;;25.98;4.88;;;13.00;99.90;;;;;;5114709;27;20042;-79
2022/05/21 04:09:28;;;;;;;24.92;5.15;;;13.10;99.90;;;;;;5113727;27;20424;-77
2022/05/21 04:11:57;;;;;;;28.63;5.32;;;13.10;99.90;;;;;;5116395;27;20050;-77
2022/05/21 04:14:27;;;;;;;24.88;5.22;;;13.10;99.90;;;;;;5109635;27;20058;-78
2022/05/21 04:16:57;;;;;;;22.98;5.22;;;13.10;99.90;;;;;;5111467;27;20071;-75
2022/05/21 04:19:25;;;;;;;24.77;5.50;;;13.10;99.90;;;;;;5110720;27;20080;-77
2022/05/21 04:21:51;;;;;;;21.67;4.75;;;13.20;99.90;;;;;;5094630;27;20034;-79
2022/05/21 04:24:17;;;;;;;24.20;5.18;;;13.10;99.90;;;;;;5130974;27;20026;-79
2022/05/21 04:26:44;;;;;;;23.23;4.70;;;13.10;99.90;;;;;;5112503;27;20130;-75
2022/05/21 04:29:10;;;;;;;17.90;4.70;;;13.20;99.90;;;;;;5119063;27;20038;-75
2022/05/21 04:31:36;;;;;;;21.88;4.40;;;13.10;99.90;;;;;;5117617;27;20043;-77
2022/05/21 04:34:02;;;;;;;19.65;4.00;;;13.20;99.90;;;;;;5096212;27;20035;-81
2022/05/21 04:36:28;;;;;;;21.95;4.75;;;13.10;99.90;;;;;;5115612;27;20045;-82
2022/05/21 04:38:53;;;;;;;21.65;3.70;;;13.30;99.90;;;;;;5094975;27;20031;-82
2022/05/21 04:41:21;;;;;;;13.48;3.30;;;13.30;99.90;;;;;;5108639;27;20138;-77
2022/05/21 04:43:48;;;;;;;20.52;4.25;;;13.20;99.90;;;;;;5118842;27;20047;-80
2022/05/21 04:46:17;;;;;;;16.00;3.75;;;13.20;99.90;;;;;;5117115;27;20585;-80
2022/05/21 04:48:44;;;;;;;19.17;3.90;;;13.30;99.90;;;;;;5106364;27;20038;-84
2022/05/21 04:51:10;;;;;;;20.92;4.25;;;13.20;99.90;;;;;;5115554;27;20047;-78
2022/05/21 04:53:36;;;;;;;16.75;3.35;;;13.30;99.90;;;;;;5107512;27;20031;-79
2022/05/21 04:56:02;;;;;;;15.00;3.63;;;13.30;99.90;;;;;;5107360;27;20054;-78
2022/05/21 04:58:28;;;;;;;15.25;3.45;;;13.30;99.90;;;;;;5139902;27;20049;-78
2022/05/21 05:00:54;;;;;;;18.73;3.78;;;13.30;99.90;;;;;;5125848;27;20043;-79
2022/05/21 05:03:20;;;;;;;18.00;3.42;;;13.50;99.90;;;;;;5114608;27;20111;-78
2022/05/21 05:05:47;;;;;;;15.48;2.80;;;13.40;99.90;;;;;;5117494;27;20031;-77
2022/05/21 05:08:17;;;;;;;17.15;3.45;;;13.30;99.90;;;;;;5099953;27;20076;-78
2022/05/21 05:10:44;;;;;;;15.35;3.53;;;13.40;99.90;;;;;;5116406;27;20050;-79
2022/05/21 05:13:12;;;;;;;13.57;3.10;;;13.40;99.90;;;;;;5112056;27;20053;-81
2022/05/21 05:15:38;;;;;;;21.58;3.60;;;13.40;99.90;;;;;;5117784;27;20055;-78
2022/05/21 05:18:06;;;;;;;16.35;3.03;;;13.40;99.90;;;;;;5116069;27;20039;-78
2022/05/21 05:20:33;;;;;;;19.58;3.50;;;13.50;99.90;;;;;;5099924;27;20115;-79
2022/05/21 05:22:58;;;;;;;14.63;3.05;;;13.50;99.90;;;;;;5116553;27;20045;-80
2022/05/21 05:25:24;;;;;;;17.20;3.17;;;13.50;99.90;;;;;;5110462;27;20035;-80
2022/05/21 05:27:50;;;;;;;20.98;4.05;;;13.60;99.90;;;;;;5103673;27;20035;-78
2022/05/21 05:30:18;;;;;;;16.33;3.17;;;13.50;99.90;;;;;;5114536;27;20042;-78
2022/05/21 05:32:44;;;;;;;17.33;3.30;;;13.70;99.90;;;;;;5123923;27;20077;-77
2022/05/21 05:35:11;;;;;;;21.95;3.22;;;13.70;99.90;;;;;;5116104;27;20426;-78
2022/05/21 05:37:37;;;;;;;20.17;3.45;;;13.70;99.90;;;;;;5100525;27;20058;-77
2022/05/21 05:40:04;;;;;;;13.35;2.83;;;13.90;99.90;;;;;;5099812;27;20242;-77
2022/05/21 05:42:30;;;;;;;20.83;3.72;;;13.70;99.90;;;;;;5115284;27;20438;-80
2022/05/21 05:44:56;;;;;;;18.27;3.33;;;13.80;99.90;;;;;;5120675;27;20035;-79
2022/05/21 05:47:22;;;;;;;14.98;2.97;;;13.80;99.90;;;;;;5112676;27;20134;-80
2022/05/21 05:49:47;;;;;;;16.25;2.90;;;13.70;99.90;;;;;;5099790;27;20081;-79
2022/05/21 05:52:15;;;;;;;15.70;3.17;;;13.80;99.90;;;;;;5096328;27;20090;-78
2022/05/21 05:54:40;;;;;;;15.40;3.35;;;13.80;99.90;;;;;;5114464;27;20055;-81
2022/05/21 05:57:10;;;;;;;15.63;3.17;;;13.70;99.90;;;;;;5112658;27;20123;-78
2022/05/21 05:59:50;;;;;;;14.18;3.03;;;13.80;99.90;;;;;;5116595;27;20038;-76
2022/05/21 06:05:13;;;;;;;17.08;2.90;;;14.00;99.90;;;;;;5124334;27;20226;-77
2022/05/21 06:07:41;;;;;;;14.43;2.80;;;14.10;99.90;;;;;;5116075;27;20058;-79
2022/05/21 06:10:07;;;;;;;22.00;3.95;;;14.10;99.90;;;;;;5100681;27;20047;-77
2022/05/21 06:12:33;;;;;;;19.10;3.50;;;14.00;99.90;;;;;;5115751;27;20134;-79
2022/05/21 06:14:59;;;;;;;20.08;3.10;;;14.20;99.90;;;;;;5118254;27;20517;-77
2022/05/21 06:17:25;;;;;;;17.05;3.13;;;14.10;99.90;;;;;;5125156;27;20039;-80
2022/05/21 06:19:52;;;;;;;19.63;3.25;;;14.10;99.90;;;;;;5120031;27;20065;-77
2022/05/21 06:22:18;;;;;;;15.55;3.30;;;14.00;99.90;;;;;;5121054;27;20445;-77
2022/05/21 06:24:44;;;;;;;19.70;3.08;;;14.10;99.90;;;;;;5111733;27;20088;-77
2022/05/21 06:27:10;;;;;;;21.33;3.78;;;14.10;99.90;;;;;;5105694;27;20039;-78
2022/05/21 06:29:36;;;;;;;20.38;3.75;;;14.20;99.90;;;;;;5123430;27;20089;-79
2022/05/21 06:32:06;;;;;;;15.85;3.42;;;14.40;99.90;;;;;;5099911;27;20079;-76
2022/05/21 06:34:34;;;;;;;16.90;3.30;;;14.50;99.90;;;;;;5118895;27;20058;-78
2022/05/21 06:37:05;;;;;;;15.27;3.05;;;14.50;99.90;;;;;;5119864;27;20078;-77
2022/05/21 06:39:32;;;;;;;16.73;3.25;;;14.30;99.90;;;;;;5130493;27;20042;-77
2022/05/21 06:41:58;;;;;;;20.38;2.95;;;14.20;99.90;;;;;;5114790;27;20119;-79
2022/05/21 06:44:23;;;;;;;21.67;3.10;;;14.10;99.90;;;;;;5120049;27;20066;-79
2022/05/21 06:46:49;;;;;;;20.80;3.72;;;14.30;99.90;;;;;;5099357;27;20155;-78
2022/05/21 06:49:15;;;;;;;24.40;3.88;;;14.40;99.90;;;;;;5101734;27;20443;-77
2022/05/21 06:51:40;;;;;;;16.60;3.45;;;14.50;99.90;;;;;;5113702;27;20118;-77
2022/05/21 06:54:06;;;;;;;19.92;3.42;;;14.70;99.90;;;;;;5115569;27;20063;-80
2022/05/21 06:56:32;;;;;;;17.73;2.97;;;14.60;99.90;;;;;;5109958;27;20164;-77
2022/05/21 06:58:57;;;;;;;14.70;3.45;;;14.70;99.90;;;;;;5115960;27;20524;-76
2022/05/21 07:01:24;;;;;;;13.05;2.63;;;14.70;99.90;;;;;;5114818;27;20039;-78
2022/05/21 07:03:50;;;;;;;17.50;3.20;;;14.70;99.90;;;;;;5112744;27;20138;-78
2022/05/21 07:09:00;;;;;;;13.18;2.83;;;14.80;99.90;;;;;;5116137;27;20083;-77
2022/05/21 07:11:26;;;;;;;19.08;3.60;;;14.90;99.90;;;;;;5093190;27;21057;-77
2022/05/21 07:13:52;;;;;;;20.63;3.72;;;14.90;99.90;;;;;;5088501;28;20492;-79
2022/05/21 07:16:18;;;;;;;19.80;2.90;;;14.80;99.90;;;;;;5097642;27;20051;-75
2022/05/21 07:18:44;;;;;;;17.00;3.13;;;14.70;99.90;;;;;;5091553;28;20055;-79
2022/05/21 07:21:15;;;;;;;13.40;3.05;;;14.80;99.90;;;;;;5109925;27;20043;-78
2022/05/21 07:23:41;;;;;;;20.67;3.60;;;14.80;99.90;;;;;;5089666;27;20454;-78
2022/05/21 07:26:07;;;;;;;15.75;3.05;;;14.80;99.90;;;;;;5090848;27;20061;-75
2022/05/21 07:28:33;;;;;;;14.18;2.97;;;14.90;99.90;;;;;;5095079;27;20051;-80
2022/05/21 07:30:59;;;;;;;13.88;2.75;;;14.80;99.90;;;;;;5096841;27;20111;-80
2022/05/21 07:33:25;;;;;;;16.05;2.97;;;15.30;99.90;;;;;;5110655;27;20039;-81
2022/05/21 07:35:51;;;;;;;14.75;2.72;;;15.30;99.90;;;;;;5115058;27;20059;-79
2022/05/21 07:38:17;;;;;;;19.58;3.45;;;15.30;99.90;;;;;;5095038;27;20043;-80
2022/05/21 07:40:47;;;;;;;18.42;3.42;;;15.30;99.90;;;;;;5095084;27;20055;-76
2022/05/21 07:43:19;;;;;;;16.02;3.15;;;15.30;99.90;;;;;;5115160;27;20088;-79
2022/05/21 07:45:50;;;;;;;19.27;2.92;;;15.60;99.90;;;;;;5116971;27;20375;-85
2022/05/21 07:48:18;;;;;;;18.90;3.45;;;15.40;99.90;;;;;;5108441;27;20039;-77
2022/05/21 07:50:48;;;;;;;19.08;2.90;;;15.50;99.90;;;;;;5111554;27;20078;-75
2022/05/21 07:53:19;;;;;;;21.67;3.60;;;15.40;99.90;;;;;;5127415;27;20062;-75
2022/05/21 07:55:48;;;;;;;15.10;3.05;;;15.40;99.90;;;;;;5101223;27;20047;-76
2022/05/21 07:58:15;;;;;;;17.05;3.30;;;15.40;99.90;;;;;;5117469;27;20054;-78
2022/05/21 08:00:41;;;;;;;23.98;3.63;;;15.60;99.90;;;;;;5096605;27;20497;-76
2022/05/21 08:03:10;;;;;;;15.63;2.95;;;15.70;99.90;;;;;;5113033;27;20495;-78
2022/05/21 08:05:39;;;;;;;18.70;3.50;;;15.70;99.90;;;;;;5094740;27;20031;-83
2022/05/21 08:08:06;;;;;;;14.38;3.05;;;15.60;99.90;;;;;;5104788;27;20147;-79
2022/05/21 08:10:32;;;;;;;12.75;2.33;;;15.40;99.90;;;;;;5110831;27;20043;-82
2022/05/21 08:12:58;;;;;;;17.15;3.40;;;15.50;99.90;;;;;;5094686;27;20040;-87
2022/05/21 08:15:24;;;;;;;14.45;3.08;;;15.60;99.90;;;;;;5094512;27;20501;-82
2022/05/21 08:17:50;;;;;;;13.90;2.85;;;15.90;99.90;;;;;;5093715;28;20046;-77
2022/05/21 08:20:16;;;;;;;12.65;2.05;;;15.90;99.90;;;;;;5109347;27;20412;-78
2022/05/21 08:28:14;;;;;;;19.27;3.30;;;15.90;99.90;;;;;;5104184;27;20039;-78
2022/05/21 08:30:45;;;;;;;16.88;2.90;;;15.90;99.90;;;;;;5108727;27;20070;-79
2022/05/21 08:33:11;;;;;;;11.88;2.17;;;16.00;99.90;;;;;;5111128;27;20048;-79
2022/05/21 08:35:38;;;;;;;13.25;2.60;;;16.20;99.90;;;;;;5094172;28;20069;-79
2022/05/21 08:38:08;;;;;;;14.43;2.67;;;16.30;99.90;;;;;;5089504;28;20051;-79
2022/05/21 08:40:49;;;;;;;21.98;2.92;;;16.30;99.90;;;;;;5107713;28;20069;-81
2022/05/21 08:43:29;;;;;;;15.40;3.05;;;16.40;99.90;;;;;;5106084;28;20130;-79
2022/05/21 08:46:04;;;;;;;15.20;3.08;;;16.40;99.90;;;;;;5107619;28;20038;-79
2022/05/21 08:48:32;;;;;;;12.05;2.47;;;16.40;99.90;;;;;;5108488;28;21330;-79
2022/05/21 08:51:02;;;;;;;15.32;2.67;;;16.30;99.90;;;;;;5106101;28;20138;-77
2022/05/21 08:53:29;;;;;;;12.25;2.45;;;16.40;99.90;;;;;;5088559;28;20482;-78
2022/05/21 08:55:58;;;;;;;16.90;2.83;;;16.60;99.90;;;;;;5088924;28;20059;-79
2022/05/21 08:58:40;;;;;;;12.68;2.42;;;16.70;99.90;;;;;;5103111;28;20051;-78
2022/05/21 09:01:09;;;;;;;15.23;2.78;;;16.60;99.90;;;;;;5108282;28;20057;-78
2022/05/21 09:03:34;;;;;;;10.10;2.20;;;16.50;99.90;;;;;;5108519;28;20367;-77
2022/05/21 09:06:03;;;;;;;12.75;2.10;;;16.50;99.90;;;;;;5092441;28;20049;-78
2022/05/21 09:08:55;;;;;;;10.80;1.92;;;16.60;99.90;;;;;;5094306;28;20343;-78
2022/05/21 09:11:47;;;;;;;12.25;2.35;;;16.50;99.90;;;;;;5095573;28;20072;-78
2022/05/21 09:17:54;;;;;;;14.68;2.20;;;16.40;99.90;;;;;;5124947;28;20465;-78
2022/05/21 09:20:21;;;;;;;19.58;3.13;;;16.70;99.90;;;;;;5095418;28;20039;-80
2022/05/21 09:22:58;;;;;;;21.77;3.20;;;16.70;99.90;;;;;;5103219;28;20055;-79
2022/05/21 09:25:26;;;;;;;9.35;2.25;;;17.20;99.90;;;;;;5091585;28;20091;-77
2022/05/21 09:28:10;;;;;;;14.43;2.67;;;16.90;99.90;;;;;;5089347;27;20040;-78
2022/05/21 09:30:40;;;;;;;11.38;2.58;;;16.90;99.90;;;;;;5123323;27;20135;-77
2022/05/21 09:33:26;;;;;;;11.95;2.17;;;17.00;99.90;;;;;;5092470;27;20086;-76
2022/05/21 09:35:55;;;;;;;12.82;2.72;;;17.00;99.90;;;;;;5130310;27;20052;-78
2022/05/21 09:38:23;;;;;;;11.60;2.38;;;16.90;99.90;;;;;;5089786;27;20092;-76
2022/05/21 09:40:49;;;;;;;12.20;2.22;;;16.60;99.90;;;;;;5091020;27;20051;-77
2022/05/21 09:46:20;;;;;;;12.30;2.80;;;16.30;99.90;;;;;;5115550;27;20435;-78
2022/05/21 09:48:47;;;;;;;10.48;2.35;;;16.10;99.90;;;;;;5116533;27;20104;-77
2022/05/21 09:51:33;;;;;;;13.50;2.80;;;16.20;99.90;;;;;;5124042;27;20515;-76
2022/05/21 09:53:59;;;;;;;13.10;2.40;;;16.30;99.90;;;;;;5109859;27;20069;-75
2022/05/21 09:56:28;;;;;;;11.10;2.33;;;16.20;99.90;;;;;;5098586;27;20419;-75
2022/05/21 09:59:22;;;;;;;11.60;2.35;;;16.10;99.90;;;;;;5092710;27;20067;-75
2022/05/21 10:01:53;;;;;;;12.93;2.53;;;16.30;99.90;;;;;;5093221;27;20387;-77
2022/05/21 10:04:24;;;;;;;15.55;3.10;;;16.40;99.90;;;;;;5113552;27;20163;-76
2022/05/21 10:13:19;;;;;;;11.40;2.22;;;16.90;99.90;;;;;;5093209;28;20135;-75
2022/05/21 10:16:18;;;;;;;9.55;2.45;;;16.80;99.90;;;;;;5109556;27;20063;-77
2022/05/21 10:19:00;;;;;;;15.20;2.63;;;16.80;99.90;;;;;;4998315;28;20053;-78
2022/05/21 10:21:58;;;;;;;11.45;2.05;;;17.40;99.90;;;;;;5002208;28;20355;-78
2022/05/21 10:24:57;;;;;;;8.02;1.75;;;17.80;99.90;;;;;;5017101;28;20038;-79
2022/05/21 10:28:01;;;;;;;8.45;1.52;;;18.50;99.90;;;;;;4998984;28;20152;-79
2022/05/21 10:30:38;;;;;;;10.73;2.20;;;17.70;99.90;;;;;;5015609;28;20251;-79
2022/05/21 10:33:16;;;;;;;9.00;2.15;;;17.70;99.90;;;;;;4988583;28;20056;-78
2022/05/21 10:47:10;;;;;;;15.07;2.65;;;18.00;99.90;;;;;;4921560;29;20041;-83
2022/05/21 10:50:22;;;;;;;11.63;2.30;;;18.00;99.90;;;;;;4974565;28;20046;-83
2022/05/21 10:53:24;;;;;;;9.23;2.33;;;17.50;99.90;;;;;;4975726;28;20057;-83
2022/05/21 10:56:02;;;;;;;13.98;1.90;;;17.20;99.90;;;;;;5015581;28;20118;-83
2022/05/21 10:58:41;;;;;;;10.30;2.00;;;17.20;99.90;;;;;;5060249;28;20086;-84
2022/05/21 11:01:28;;;;;;;9.93;2.05;;;17.00;99.90;;;;;;5043576;28;20060;-82
2022/05/21 11:04:27;;;;;;;12.95;2.50;;;17.40;99.90;;;;;;5021545;28;20524;-83
2022/05/21 11:07:11;;;;;;;8.77;2.17;;;17.70;99.90;;;;;;5045559;28;20528;-83
2022/05/21 11:09:44;;;;;;;7.93;2.10;;;18.20;99.90;;;;;;5066759;28;20131;-84
2022/05/21 11:12:20;;;;;;;8.73;2.10;;;18.20;99.90;;;;;;5070149;28;20041;-84
2022/05/21 11:14:49;;;;;;;9.30;1.90;;;18.40;99.90;;;;;;5050568;28;20040;-84
2022/05/21 11:17:40;;;;;;;10.27;2.45;;;18.30;99.90;;;;;;5110789;27;20047;-84
2022/05/21 11:20:26;;;;;;;12.57;2.00;;;18.50;99.90;;;;;;5121101;27;20492;-84
2022/05/21 11:23:10;;;;;;;15.50;2.35;;;18.50;99.90;;;;;;5107751;28;20502;-82
2022/05/21 11:25:46;;;;;;;12.73;2.38;;;18.40;99.90;;;;;;5121521;27;20120;-83
2022/05/21 11:28:43;;;;;;;11.05;2.15;;;18.30;99.90;;;;;;5106504;27;20047;-82
2022/05/21 11:39:44;;;;;;;11.68;2.33;;;18.30;99.90;;;;;;5117299;27;20058;-83
2022/05/21 11:42:16;;;;;;;12.60;2.28;;;18.30;99.90;;;;;;5111685;28;20035;-83
2022/05/21 11:45:08;;;;;;;6.55;1.50;;;18.30;99.90;;;;;;5118801;27;20116;-82
2022/05/21 11:47:42;;;;;;;8.07;2.00;;;18.30;99.90;;;;;;5119127;27;20055;-82
2022/05/21 11:50:27;;;;;;;10.07;2.40;;;18.40;99.90;;;;;;5102392;28;20120;-84
2022/05/21 11:52:55;;;;;;;11.45;2.25;;;18.00;99.90;;;;;;5126407;27;20134;-83
2022/05/21 11:55:25;;;;;;;7.53;2.28;;;18.30;99.90;;;;;;5093770;28;20047;-82
2022/05/21 11:58:01;;;;;;;9.93;2.20;;;18.10;99.90;;;;;;5128395;27;20459;-83
2022/05/21 12:00:27;;;;;;;11.23;2.45;;;18.10;99.90;;;;;;5096895;28;20051;-82
2022/05/21 12:02:58;;;;;;;10.05;2.25;;;18.00;99.90;;;;;;5110535;27;20053;-81
2022/05/21 12:05:37;;;;;;;13.93;2.70;;;18.00;99.90;;;;;;5137891;27;20078;-78
2022/05/21 12:08:10;;;;;;;14.27;2.33;;;17.90;99.90;;;;;;5129348;28;20055;-77
2022/05/21 12:11:02;;;;;;;13.98;2.70;;;17.80;99.90;;;;;;5114342;28;20047;-84
2022/05/21 12:13:33;;;;;;;6.82;1.90;;;17.60;99.90;;;;;;5094526;27;20130;-84
2022/05/21 12:16:24;;;;;;;10.80;1.95;;;17.80;99.90;;;;;;5100674;28;20089;-83
2022/05/21 12:18:55;;;;;;;14.20;2.17;;;18.50;99.90;;;;;;5094673;27;20071;-83
2022/05/21 12:21:30;;;;;;;10.90;3.70;;;18.70;99.90;;;;;;5115567;27;20092;-78
2022/05/21 12:23:56;;;;;;;12.07;2.33;;;18.60;99.90;;;;;;5101017;27;20047;-77
2022/05/21 12:26:26;;;;;;;11.77;2.70;;;18.40;99.90;;;;;;5092642;27;20055;-78
2022/05/21 12:29:09;;;;;;;10.23;2.33;;;18.50;99.90;;;;;;5105380;27;20059;-74
2022/05/21 12:31:43;;;;;;;7.38;1.85;;;18.60;99.90;;;;;;5111060;27;20152;-74
2022/05/21 12:34:23;;;;;;;8.98;1.67;;;18.40;99.90;;;;;;5098585;28;20067;-74
2022/05/21 12:37:27;;;;;;;7.95;2.08;;;18.60;99.90;;;;;;5114921;27;20374;-73
2022/05/21 12:40:05;;;;;;;10.90;2.08;;;18.30;99.90;;;;;;5113515;28;20060;-74
2022/05/21 12:42:43;;;;;;;12.10;2.10;;;18.60;99.90;;;;;;5113403;28;20035;-75
2022/05/21 12:45:11;;;;;;;6.15;1.67;;;19.00;99.90;;;;;;5122495;27;20043;-73
2022/05/21 12:47:44;;;;;;;5.85;1.30;;;19.40;99.90;;;;;;5113483;28;20043;-73
2022/05/21 12:50:14;;;;;;;7.35;1.70;;;19.70;99.90;;;;;;5110184;28;20092;-74
2022/05/21 12:52:46;;;;;;;7.93;1.80;;;19.30;99.90;;;;;;5109770;28;20058;-73
2022/05/21 12:55:17;;;;;;;8.30;2.08;;;19.30;99.90;;;;;;5109337;28;20036;-73
2022/05/21 12:57:44;;;;;;;5.20;1.48;;;19.40;99.90;;;;;;5094298;28;20059;-74
2022/05/21 13:00:10;;;;;;;7.57;1.83;;;18.90;99.90;;;;;;5113740;28;20447;-73
2022/05/21 13:02:46;;;;;;;9.45;1.80;;;18.80;99.90;;;;;;5096085;27;20045;-75
2022/05/21 13:05:26;;;;;;;6.50;1.75;;;18.60;99.90;;;;;;5097944;27;20043;-78
2022/05/21 13:07:53;;;;;;;6.72;1.63;;;18.60;99.90;;;;;;5095917;27;20048;-79
2022/05/21 13:10:25;;;;;;;12.48;1.90;;;19.10;99.90;;;;;;5114954;27;20051;-77
2022/05/21 13:13:09;;;;;;;6.15;1.63;;;19.50;99.90;;;;;;5104732;27;20121;-79
2022/05/21 13:15:39;;;;;;;9.07;1.98;;;19.20;99.90;;;;;;5114630;27;20070;-78
2022/05/21 13:18:17;;;;;;;8.63;1.83;;;19.10;99.90;;;;;;5114672;27;20058;-76
2022/05/21 13:20:55;;;;;;;7.47;1.80;;;19.20;99.90;;;;;;5123950;27;20055;-74
2022/05/21 13:23:37;;;;;;;7.80;1.67;;;19.00;99.90;;;;;;5101734;27;20047;-78
2022/05/21 13:26:03;;;;;;;7.68;1.92;;;18.60;99.90;;;;;;5105464;27;20054;-71
2022/05/21 13:28:29;;;;;;;10.80;2.08;;;18.60;99.90;;;;;;5129165;27;20127;-72
2022/05/21 13:30:55;;;;;;;8.00;2.00;;;19.20;99.90;;;;;;5127046;27;20063;-75
2022/05/21 13:33:36;;;;;;;10.57;2.08;;;19.20;99.90;;;;;;5123340;27;20052;-79
2022/05/21 13:36:10;;;;;;;7.15;1.80;;;20.10;99.90;;;;;;5121766;27;20047;-75
2022/05/21 13:38:39;;;;;;;8.98;1.92;;;20.00;99.90;;;;;;5116737;27;20088;-76
2022/05/21 13:41:10;;;;;;;10.93;1.83;;;19.90;99.90;;;;;;5119453;27;20355;-76